sensor_id;sensor_type;location;lat;lon;timestamp;pressure;altitude;pressure_sealevel;temperature;humidity
51289;BME280;37372;52.294;5.152;2023-05-08T00:02:06;102090.69;;;11.94;100.00
51289;BME280;37372;52.294;5.152;2023-05-08T00:04:31;102089.00;;;11.93;100.00
51289;BME280;37372;52.294;5.152;2023-05-08T00:06:57;102097.25;;;11.93;100.00
51289;BME280;37372;52.294;5.152;2023-05-08T00:09:23;102094.06;;;11.89;99.86
51289;BME280;37372;52.294;5.152;2023-05-08T00:11:49;102089.41;;;11.90;100.00
51289;BME280;37372;52.294;5.152;2023-05-08T00:14:15;102087.31;;;11.85;100.00
51289;BME280;37372;52.294;5.152;2023-05-08T00:16:40;102082.22;;;11.82;100.00
51289;BME280;37372;52.294;5.152;2023-05-08T00:19:06;102081.56;;;11.80;100.00
51289;BME280;37372;52.294;5.152;2023-05-08T00:21:32;102081.78;;;11.79;100.00
51289;BME280;37372;52.294;5.152;2023-05-08T00:23:58;102082.63;;;11.79;100.00
51289;BME280;37372;52.294;5.152;2023-05-08T00:26:24;102079.88;;;11.79;100.00
51289;BME280;37372;52.294;5.152;2023-05-08T00:28:49;102082.59;;;11.73;99.91
51289;BME280;37372;52.294;5.152;2023-05-08T00:31:15;102079.84;;;11.73;100.00
51289;BME280;37372;52.294;5.152;2023-05-08T00:33:40;102084.69;;;11.71;100.00
51289;BME280;37372;52.294;5.152;2023-05-08T00:36:06;102087.66;;;11.69;100.00
51289;BME280;37372;52.294;5.152;2023-05-08T00:38:33;102079.41;;;11.69;100.00
51289;BME280;37372;52.294;5.152;2023-05-08T00:41:02;102081.31;;;11.69;100.00
51289;BME280;37372;52.294;5.152;2023-05-08T00:43:28;102076.22;;;11.65;99.80
51289;BME280;37372;52.294;5.152;2023-05-08T00:45:54;102078.13;;;11.65;99.85
51289;BME280;37372;52.294;5.152;2023-05-08T00:48:21;102083.44;;;11.66;100.00
51289;BME280;37372;52.294;5.152;2023-05-08T00:50:51;102086.19;;;11.66;99.93
51289;BME280;37372;52.294;5.152;2023-05-08T00:53:18;102085.13;;;11.68;99.74
51289;BME280;37372;52.294;5.152;2023-05-08T00:55:45;102086.19;;;11.66;99.61
51289;BME280;37372;52.294;5.152;2023-05-08T00:58:11;102090.38;;;11.62;99.65
51289;BME280;37372;52.294;5.152;2023-05-08T01:00:38;102091.22;;;11.63;100.00
51289;BME280;37372;52.294;5.152;2023-05-08T01:03:06;102091.44;;;11.61;99.99
51289;BME280;37372;52.294;5.152;2023-05-08T01:05:32;102090.81;;;11.59;99.82
51289;BME280;37372;52.294;5.152;2023-05-08T01:07:57;102091.84;;;11.58;99.71
51289;BME280;37372;52.294;5.152;2023-05-08T01:11:05;102085.72;;;11.56;99.95
51289;BME280;37372;52.294;5.152;2023-05-08T01:16:38;102092.50;;;11.54;100.00
51289;BME280;37372;52.294;5.152;2023-05-08T01:22:17;102092.66;;;11.52;100.00
51289;BME280;37372;52.294;5.152;2023-05-08T01:33:40;102096.25;;;11.46;99.58
51289;BME280;37372;52.294;5.152;2023-05-08T01:36:17;102101.09;;;11.44;99.56
51289;BME280;37372;52.294;5.152;2023-05-08T01:39:16;102102.59;;;11.40;99.49
51289;BME280;37372;52.294;5.152;2023-05-08T01:44:43;102094.13;;;11.35;99.68
51289;BME280;37372;52.294;5.152;2023-05-08T01:47:10;102091.13;;;11.30;99.51
51289;BME280;37372;52.294;5.152;2023-05-08T01:49:49;102089.66;;;11.27;99.59
51289;BME280;37372;52.294;5.152;2023-05-08T01:52:23;102092.16;;;11.22;99.81
51289;BME280;37372;52.294;5.152;2023-05-08T01:55:07;102089.81;;;11.19;99.61
51289;BME280;37372;52.294;5.152;2023-05-08T01:57:39;102089.16;;;11.17;100.00
51289;BME280;37372;52.294;5.152;2023-05-08T02:00:07;102096.81;;;11.22;100.00
51289;BME280;37372;52.294;5.152;2023-05-08T02:02:34;102091.31;;;11.22;100.00
51289;BME280;37372;52.294;5.152;2023-05-08T02:05:05;102097.88;;;11.21;100.00
51289;BME280;37372;52.294;5.152;2023-05-08T02:07:33;102096.81;;;11.22;99.94
51289;BME280;37372;52.294;5.152;2023-05-08T02:10:03;102096.97;;;11.20;100.00
51289;BME280;37372;52.294;5.152;2023-05-08T02:12:30;102097.81;;;11.14;99.96
51289;BME280;37372;52.294;5.152;2023-05-08T02:14:58;102098.00;;;11.12;100.00
51289;BME280;37372;52.294;5.152;2023-05-08T02:17:24;102099.69;;;11.13;100.00
51289;BME280;37372;52.294;5.152;2023-05-08T02:19:51;102103.28;;;11.14;100.00
51289;BME280;37372;52.294;5.152;2023-05-08T02:22:20;102103.72;;;11.11;99.98
51289;BME280;37372;52.294;5.152;2023-05-08T02:24:50;102093.78;;;11.10;100.00
51289;BME280;37372;52.294;5.152;2023-05-08T02:27:24;102102.22;;;11.08;100.00
51289;BME280;37372;52.294;5.152;2023-05-08T02:29:52;102095.03;;;11.07;100.00
51289;BME280;37372;52.294;5.152;2023-05-08T02:32:24;102105.59;;;11.04;99.96
51289;BME280;37372;52.294;5.152;2023-05-08T02:34:53;102102.00;;;11.03;100.00
51289;BME280;37372;52.294;5.152;2023-05-08T02:37:20;102099.47;;;11.02;100.00
51289;BME280;37372;52.294;5.152;2023-05-08T02:39:52;102102.38;;;11.00;99.77
51289;BME280;37372;52.294;5.152;2023-05-08T02:42:20;102120.72;;;10.93;99.41
51289;BME280;37372;52.294;5.152;2023-05-08T02:44:45;102108.84;;;10.86;99.13
51289;BME280;37372;52.294;5.152;2023-05-08T02:47:19;102105.47;;;10.84;99.73
51289;BME280;37372;52.294;5.152;2023-05-08T02:50:08;102102.47;;;10.79;99.19
51289;BME280;37372;52.294;5.152;2023-05-08T02:53:02;102099.28;;;10.75;99.66
51289;BME280;37372;52.294;5.152;2023-05-08T02:55:39;102098.63;;;10.73;99.55
51289;BME280;37372;52.294;5.152;2023-05-08T02:58:45;102097.59;;;10.74;99.75
51289;BME280;37372;52.294;5.152;2023-05-08T03:03:55;102091.50;;;10.79;99.79
51289;BME280;37372;52.294;5.152;2023-05-08T03:06:25;102087.72;;;10.87;99.92
51289;BME280;37372;52.294;5.152;2023-05-08T03:08:54;102084.19;;;10.93;99.99
51289;BME280;37372;52.294;5.152;2023-05-08T03:11:27;102091.59;;;10.99;100.00
51289;BME280;37372;52.294;5.152;2023-05-08T03:13:59;102077.28;;;11.03;100.00
51289;BME280;37372;52.294;5.152;2023-05-08T03:16:31;102081.25;;;11.01;99.74
51289;BME280;37372;52.294;5.152;2023-05-08T03:19:01;102080.66;;;11.05;100.00
51289;BME280;37372;52.294;5.152;2023-05-08T03:21:32;102084.69;;;11.09;100.00
51289;BME280;37372;52.294;5.152;2023-05-08T03:24:02;102090.63;;;11.13;100.00
51289;BME280;37372;52.294;5.152;2023-05-08T03:26:28;102080.28;;;11.15;100.00
51289;BME280;37372;52.294;5.152;2023-05-08T03:28:55;102086.63;;;11.16;100.00
51289;BME280;37372;52.294;5.152;2023-05-08T03:31:21;102087.47;;;11.16;100.00
51289;BME280;37372;52.294;5.152;2023-05-08T03:33:51;102078.19;;;11.17;100.00
51289;BME280;37372;52.294;5.152;2023-05-08T03:36:17;102087.91;;;11.20;100.00
51289;BME280;37372;52.294;5.152;2023-05-08T03:38:43;102085.41;;;11.25;100.00
51289;BME280;37372;52.294;5.152;2023-05-08T03:41:11;102081.19;;;11.29;100.00
51289;BME280;37372;52.294;5.152;2023-05-08T03:43:36;102076.31;;;11.24;100.00
51289;BME280;37372;52.294;5.152;2023-05-08T03:46:06;102077.16;;;11.25;100.00
51289;BME280;37372;52.294;5.152;2023-05-08T03:48:33;102074.84;;;11.28;100.00
51289;BME280;37372;52.294;5.152;2023-05-08T03:51:02;102078.88;;;11.32;100.00
51289;BME280;37372;52.294;5.152;2023-05-08T03:53:29;102075.50;;;11.37;100.00
51289;BME280;37372;52.294;5.152;2023-05-08T03:55:57;102078.25;;;11.37;100.00
51289;BME280;37372;52.294;5.152;2023-05-08T03:58:43;102071.50;;;11.39;100.00
51289;BME280;37372;52.294;5.152;2023-05-08T04:03:56;102081.25;;;11.49;100.00
51289;BME280;37372;52.294;5.152;2023-05-08T04:06:36;102076.84;;;11.54;100.00
51289;BME280;37372;52.294;5.152;2023-05-08T04:11:50;102088.44;;;11.50;100.00
51289;BME280;37372;52.294;5.152;2023-05-08T04:14:20;102087.38;;;11.44;100.00
51289;BME280;37372;52.294;5.152;2023-05-08T04:16:51;102084.84;;;11.49;100.00
51289;BME280;37372;52.294;5.152;2023-05-08T04:19:27;102088.44;;;11.50;100.00
51289;BME280;37372;52.294;5.152;2023-05-08T04:22:08;102092.47;;;11.47;100.00
51289;BME280;37372;52.294;5.152;2023-05-08T04:24:39;102088.84;;;11.33;100.00
51289;BME280;37372;52.294;5.152;2023-05-08T04:27:08;102090.94;;;11.38;100.00
51289;BME280;37372;52.294;5.152;2023-05-08T04:29:33;102096.03;;;11.41;100.00
51289;BME280;37372;52.294;5.152;2023-05-08T04:32:03;102094.13;;;11.42;100.00
51289;BME280;37372;52.294;5.152;2023-05-08T04:34:29;102099.84;;;11.40;100.00
51289;BME280;37372;52.294;5.152;2023-05-08T04:36:54;102097.28;;;11.38;100.00
51289;BME280;37372;52.294;5.152;2023-05-08T04:39:20;102092.84;;;11.37;100.00
51289;BME280;37372;52.294;5.152;2023-05-08T04:41:49;102095.59;;;11.37;100.00
51289;BME280;37372;52.294;5.152;2023-05-08T04:44:25;102099.41;;;11.36;100.00
51289;BME280;37372;52.294;5.152;2023-05-08T04:47:04;102106.56;;;11.37;100.00
51289;BME280;37372;52.294;5.152;2023-05-08T04:49:31;102118.41;;;11.38;100.00
51289;BME280;37372;52.294;5.152;2023-05-08T04:51:57;102109.97;;;11.46;100.00
51289;BME280;37372;52.294;5.152;2023-05-08T04:54:22;102119.13;;;11.53;100.00
51289;BME280;37372;52.294;5.152;2023-05-08T04:56:48;102122.06;;;11.52;100.00
51289;BME280;37372;52.294;5.152;2023-05-08T04:59:13;102123.13;;;11.57;100.00
51289;BME280;37372;52.294;5.152;2023-05-08T05:01:47;102125.28;;;11.69;100.00
51289;BME280;37372;52.294;5.152;2023-05-08T05:04:13;102126.16;;;11.76;100.00
51289;BME280;37372;52.294;5.152;2023-05-08T05:06:39;102122.19;;;11.85;100.00
51289;BME280;37372;52.294;5.152;2023-05-08T05:09:05;102121.56;;;11.89;100.00
51289;BME280;37372;52.294;5.152;2023-05-08T05:11:34;102134.28;;;11.97;100.00
51289;BME280;37372;52.294;5.152;2023-05-08T05:14:01;102129.00;;;12.02;100.00
51289;BME280;37372;52.294;5.152;2023-05-08T05:16:26;102138.94;;;12.10;100.00
51289;BME280;37372;52.294;5.152;2023-05-08T05:18:52;102145.13;;;12.18;100.00
51289;BME280;37372;52.294;5.152;2023-05-08T05:21:18;102149.13;;;12.29;100.00
51289;BME280;37372;52.294;5.152;2023-05-08T05:23:46;102145.75;;;12.34;99.89
51289;BME280;37372;52.294;5.152;2023-05-08T05:26:29;102144.28;;;12.31;99.09
51289;BME280;37372;52.294;5.152;2023-05-08T05:28:54;102147.66;;;12.40;99.52
51289;BME280;37372;52.294;5.152;2023-05-08T05:31:20;102155.91;;;12.40;99.58
51289;BME280;37372;52.294;5.152;2023-05-08T05:33:45;102152.09;;;12.41;99.26
51289;BME280;37372;52.294;5.152;2023-05-08T05:36:14;102150.41;;;12.40;99.16
51289;BME280;37372;52.294;5.152;2023-05-08T05:38:40;102151.88;;;12.42;99.16
51289;BME280;37372;52.294;5.152;2023-05-08T05:41:06;102143.63;;;12.49;99.65
51289;BME280;37372;52.294;5.152;2023-05-08T05:43:32;102144.50;;;12.50;99.43
51289;BME280;37372;52.294;5.152;2023-05-08T05:46:04;102150.84;;;12.57;99.27
51289;BME280;37372;52.294;5.152;2023-05-08T05:48:34;102153.16;;;12.60;99.20
51289;BME280;37372;52.294;5.152;2023-05-08T05:51:01;102151.03;;;12.68;99.17
51289;BME280;37372;52.294;5.152;2023-05-08T05:53:28;102148.50;;;12.73;99.07
51289;BME280;37372;52.294;5.152;2023-05-08T05:55:56;102147.88;;;12.65;98.32
51289;BME280;37372;52.294;5.152;2023-05-08T05:58:22;102152.09;;;12.74;98.98
51289;BME280;37372;52.294;5.152;2023-05-08T06:00:47;102150.84;;;12.83;98.79
51289;BME280;37372;52.294;5.152;2023-05-08T06:03:16;102157.81;;;12.86;98.59
51289;BME280;37372;52.294;5.152;2023-05-08T06:05:42;102162.47;;;12.92;98.36
51289;BME280;37372;52.294;5.152;2023-05-08T06:08:08;102165.63;;;13.02;98.27
51289;BME280;37372;52.294;5.152;2023-05-08T06:10:35;102164.13;;;12.99;97.18
51289;BME280;37372;52.294;5.152;2023-05-08T06:13:03;102169.47;;;13.01;98.03
51289;BME280;37372;52.294;5.152;2023-05-08T06:15:32;102166.03;;;13.06;97.65
51289;BME280;37372;52.294;5.152;2023-05-08T06:18:02;102171.53;;;13.06;98.05
51289;BME280;37372;52.294;5.152;2023-05-08T06:20:27;102166.69;;;13.01;97.92
51289;BME280;37372;52.294;5.152;2023-05-08T06:22:53;102169.44;;;12.94;98.35
51289;BME280;37372;52.294;5.152;2023-05-08T06:25:19;102170.72;;;12.98;98.81
51289;BME280;37372;52.294;5.152;2023-05-08T06:27:44;102165.19;;;13.12;98.79
51289;BME280;37372;52.294;5.152;2023-05-08T06:30:13;102162.19;;;13.20;98.58
51289;BME280;37372;52.294;5.152;2023-05-08T06:32:38;102160.50;;;13.25;98.27
51289;BME280;37372;52.294;5.152;2023-05-08T06:35:04;102162.59;;;13.37;98.64
51289;BME280;37372;52.294;5.152;2023-05-08T06:37:43;102164.97;;;13.33;97.46
51289;BME280;37372;52.294;5.152;2023-05-08T06:40:09;102165.50;;;13.55;98.48
51289;BME280;37372;52.294;5.152;2023-05-08T06:42:34;102172.28;;;13.59;98.05
51289;BME280;37372;52.294;5.152;2023-05-08T06:45:03;102170.38;;;13.60;96.60
51289;BME280;37372;52.294;5.152;2023-05-08T06:47:29;102168.50;;;13.47;96.36
51289;BME280;37372;52.294;5.152;2023-05-08T06:49:54;102164.88;;;13.53;96.78
51289;BME280;37372;52.294;5.152;2023-05-08T06:52:19;102164.84;;;13.60;96.02
51289;BME280;37372;52.294;5.152;2023-05-08T06:54:45;102158.66;;;13.64;96.43
51289;BME280;37372;52.294;5.152;2023-05-08T06:57:14;102157.16;;;13.68;95.00
51289;BME280;37372;52.294;5.152;2023-05-08T06:59:43;102152.19;;;13.83;96.15
51289;BME280;37372;52.294;5.152;2023-05-08T07:02:08;102161.44;;;14.02;95.79
51289;BME280;37372;52.294;5.152;2023-05-08T07:04:35;102161.25;;;13.97;94.24
51289;BME280;37372;52.294;5.152;2023-05-08T07:07:01;102159.69;;;14.08;94.88
51289;BME280;37372;52.294;5.152;2023-05-08T07:09:51;102160.28;;;14.17;95.63
51289;BME280;37372;52.294;5.152;2023-05-08T07:12:17;102155.44;;;14.12;94.54
51289;BME280;37372;52.294;5.152;2023-05-08T07:14:43;102160.47;;;14.22;94.57
51289;BME280;37372;52.294;5.152;2023-05-08T07:17:11;102159.34;;;14.29;94.89
51289;BME280;37372;52.294;5.152;2023-05-08T07:19:37;102160.06;;;14.18;92.81
51289;BME280;37372;52.294;5.152;2023-05-08T07:22:04;102161.56;;;14.14;92.94
51289;BME280;37372;52.294;5.152;2023-05-08T07:24:31;102159.00;;;14.19;94.02
51289;BME280;37372;52.294;5.152;2023-05-08T07:26:56;102157.03;;;14.26;94.46
51289;BME280;37372;52.294;5.152;2023-05-08T07:29:25;102152.91;;;14.35;94.24
51289;BME280;37372;52.294;5.152;2023-05-08T07:31:51;102159.09;;;14.38;93.54
51289;BME280;37372;52.294;5.152;2023-05-08T07:34:17;102161.53;;;14.52;94.18
51289;BME280;37372;52.294;5.152;2023-05-08T07:36:46;102158.97;;;14.57;93.54
51289;BME280;37372;52.294;5.152;2023-05-08T07:39:11;102158.50;;;14.60;92.94
51289;BME280;37372;52.294;5.152;2023-05-08T07:41:39;102155.84;;;14.72;93.11
51289;BME280;37372;52.294;5.152;2023-05-08T07:44:05;102162.31;;;14.84;91.30
51289;BME280;37372;52.294;5.152;2023-05-08T07:46:39;102163.16;;;14.85;91.58
51289;BME280;37372;52.294;5.152;2023-05-08T07:49:04;102170.19;;;14.81;91.83
51289;BME280;37372;52.294;5.152;2023-05-08T07:51:39;102161.97;;;14.74;92.80
51289;BME280;37372;52.294;5.152;2023-05-08T07:54:06;102161.72;;;14.82;92.35
51289;BME280;37372;52.294;5.152;2023-05-08T07:56:32;102156.31;;;14.69;93.76
51289;BME280;37372;52.294;5.152;2023-05-08T07:59:01;102168.13;;;14.76;93.01
51289;BME280;37372;52.294;5.152;2023-05-08T08:01:27;102157.25;;;14.81;93.21
51289;BME280;37372;52.294;5.152;2023-05-08T08:03:53;102159.09;;;14.87;92.71
51289;BME280;37372;52.294;5.152;2023-05-08T08:06:18;102156.75;;;15.09;91.79
51289;BME280;37372;52.294;5.152;2023-05-08T08:08:44;102164.50;;;15.19;91.90
51289;BME280;37372;52.294;5.152;2023-05-08T08:11:09;102160.81;;;15.25;90.90
51289;BME280;37372;52.294;5.152;2023-05-08T08:13:35;102158.97;;;15.19;90.91
51289;BME280;37372;52.294;5.152;2023-05-08T08:16:06;102155.00;;;15.33;90.71
51289;BME280;37372;52.294;5.152;2023-05-08T08:18:35;102159.75;;;15.44;90.63
51289;BME280;37372;52.294;5.152;2023-05-08T08:21:09;102147.91;;;15.56;89.07
51289;BME280;37372;52.294;5.152;2023-05-08T08:23:35;102149.59;;;15.75;88.90
51289;BME280;37372;52.294;5.152;2023-05-08T08:26:01;102155.25;;;15.98;87.06
51289;BME280;37372;52.294;5.152;2023-05-08T08:28:27;102152.25;;;16.00;88.10
51289;BME280;37372;52.294;5.152;2023-05-08T08:30:52;102147.09;;;16.04;86.84
51289;BME280;37372;52.294;5.152;2023-05-08T08:33:18;102152.38;;;16.05;87.84
51289;BME280;37372;52.294;5.152;2023-05-08T08:35:44;102146.31;;;15.96;86.77
51289;BME280;37372;52.294;5.152;2023-05-08T08:38:17;102150.22;;;16.07;87.04
51289;BME280;37372;52.294;5.152;2023-05-08T08:40:42;102157.25;;;16.21;86.22
51289;BME280;37372;52.294;5.152;2023-05-08T08:43:09;102162.88;;;16.15;86.32
51289;BME280;37372;52.294;5.152;2023-05-08T08:45:44;102156.25;;;16.16;86.89
51289;BME280;37372;52.294;5.152;2023-05-08T08:48:10;102159.31;;;16.26;86.64
51289;BME280;37372;52.294;5.152;2023-05-08T08:50:41;102149.31;;;16.25;85.77
51289;BME280;37372;52.294;5.152;2023-05-08T08:56:21;102160.44;;;16.37;85.08
51289;BME280;37372;52.294;5.152;2023-05-08T08:58:52;102159.69;;;16.30;86.19
51289;BME280;37372;52.294;5.152;2023-05-08T09:01:19;102176.41;;;16.35;85.99
51289;BME280;37372;52.294;5.152;2023-05-08T09:03:46;102168.56;;;16.62;85.91
51289;BME280;37372;52.294;5.152;2023-05-08T09:06:12;102172.19;;;16.74;85.51
51289;BME280;37372;52.294;5.152;2023-05-08T09:08:39;102163.94;;;16.67;84.51
51289;BME280;37372;52.294;5.152;2023-05-08T09:11:20;102163.94;;;16.67;84.81
51289;BME280;37372;52.294;5.152;2023-05-08T09:13:46;102160.25;;;16.62;84.71
51289;BME280;37372;52.294;5.152;2023-05-08T09:16:13;102149.31;;;16.78;85.97
51289;BME280;37372;52.294;5.152;2023-05-08T09:18:40;102163.88;;;16.86;83.98
51289;BME280;37372;52.294;5.152;2023-05-08T09:21:13;102166.78;;;16.79;85.31
51289;BME280;37372;52.294;5.152;2023-05-08T09:24:03;102166.84;;;16.49;85.08
51289;BME280;37372;52.294;5.152;2023-05-08T09:26:37;102170.06;;;16.46;86.29
51289;BME280;37372;52.294;5.152;2023-05-08T09:29:17;102165.75;;;16.50;85.12
51289;BME280;37372;52.294;5.152;2023-05-08T09:31:47;102172.50;;;16.66;85.57
51289;BME280;37372;52.294;5.152;2023-05-08T09:34:30;102159.91;;;16.93;82.96
51289;BME280;37372;52.294;5.152;2023-05-08T09:39:29;102165.69;;;16.92;83.29
51289;BME280;37372;52.294;5.152;2023-05-08T09:42:13;102177.28;;;17.00;82.43
51289;BME280;37372;52.294;5.152;2023-05-08T09:47:16;102173.16;;;16.79;82.84
51289;BME280;37372;52.294;5.152;2023-05-08T09:52:25;102175.66;;;16.69;83.35
51289;BME280;37372;52.294;5.152;2023-05-08T09:55:02;102174.69;;;16.64;84.80
51289;BME280;37372;52.294;5.152;2023-05-08T09:57:30;102171.91;;;16.64;83.76
51289;BME280;37372;52.294;5.152;2023-05-08T10:02:35;102170.03;;;16.99;82.12
51289;BME280;37372;52.294;5.152;2023-05-08T10:05:02;102178.13;;;16.89;83.62
51289;BME280;37372;52.294;5.152;2023-05-08T10:07:30;102170.81;;;16.65;83.63
51289;BME280;37372;52.294;5.152;2023-05-08T10:10:04;102177.13;;;16.72;85.06
51289;BME280;37372;52.294;5.152;2023-05-08T10:12:33;102174.09;;;16.62;83.55
51289;BME280;37372;52.294;5.152;2023-05-08T10:14:58;102173.00;;;16.63;83.75
51289;BME280;37372;52.294;5.152;2023-05-08T10:17:43;102171.88;;;16.52;83.78
51289;BME280;37372;52.294;5.152;2023-05-08T10:20:27;102170.63;;;16.24;86.31
51289;BME280;37372;52.294;5.152;2023-05-08T10:22:55;102173.06;;;16.33;84.37
51289;BME280;37372;52.294;5.152;2023-05-08T10:25:37;102176.69;;;16.45;85.62
51289;BME280;37372;52.294;5.152;2023-05-08T10:28:15;102179.09;;;16.41;84.54
51289;BME280;37372;52.294;5.152;2023-05-08T10:30:50;102184.03;;;16.81;83.30
51289;BME280;37372;52.294;5.152;2023-05-08T10:33:20;102172.78;;;17.35;83.32
51289;BME280;37372;52.294;5.152;2023-05-08T10:35:50;102170.91;;;17.75;78.92
51289;BME280;37372;52.294;5.152;2023-05-08T10:38:29;102175.28;;;17.71;78.46
51289;BME280;37372;52.294;5.152;2023-05-08T10:40:58;102168.69;;;17.77;79.33
51289;BME280;37372;52.294;5.152;2023-05-08T10:43:28;102170.75;;;17.70;79.03
51289;BME280;37372;52.294;5.152;2023-05-08T10:45:55;102169.47;;;17.73;79.18
51289;BME280;37372;52.294;5.152;2023-05-08T10:48:54;102168.47;;;17.79;78.42
51289;BME280;37372;52.294;5.152;2023-05-08T10:51:41;102165.19;;;17.82;78.64
51289;BME280;37372;52.294;5.152;2023-05-08T10:54:17;102168.63;;;17.72;78.74
51289;BME280;37372;52.294;5.152;2023-05-08T10:56:43;102159.53;;;17.77;77.59
51289;BME280;37372;52.294;5.152;2023-05-08T10:59:18;102165.81;;;17.84;77.90
51289;BME280;37372;52.294;5.152;2023-05-08T11:01:48;102152.81;;;17.73;78.74
51289;BME280;37372;52.294;5.152;2023-05-08T11:04:20;102155.94;;;17.65;78.92
51289;BME280;37372;52.294;5.152;2023-05-08T11:06:48;102158.81;;;17.81;78.00
51289;BME280;37372;52.294;5.152;2023-05-08T11:09:28;102156.47;;;17.90;78.06
51289;BME280;37372;52.294;5.152;2023-05-08T11:12:27;102163.13;;;18.34;77.65
51289;BME280;37372;52.294;5.152;2023-05-08T11:15:02;102160.97;;;18.36;76.88
51289;BME280;37372;52.294;5.152;2023-05-08T11:17:29;102157.38;;;18.70;74.41
51289;BME280;37372;52.294;5.152;2023-05-08T11:19:59;102149.53;;;18.66;72.85
51289;BME280;37372;52.294;5.152;2023-05-08T11:22:47;102145.13;;;19.04;72.79
51289;BME280;37372;52.294;5.152;2023-05-08T11:25:12;102144.00;;;19.05;71.80
51289;BME280;37372;52.294;5.152;2023-05-08T11:35:51;102147.84;;;18.49;73.76
51289;BME280;37372;52.294;5.152;2023-05-08T11:38:24;102140.16;;;18.39;73.50
51289;BME280;37372;52.294;5.152;2023-05-08T11:41:07;102140.47;;;18.26;74.16
51289;BME280;37372;52.294;5.152;2023-05-08T11:46:06;102135.03;;;18.64;73.22
51289;BME280;37372;52.294;5.152;2023-05-08T11:48:35;102129.16;;;18.78;72.94
51289;BME280;37372;52.294;5.152;2023-05-08T11:51:05;102127.13;;;18.90;71.98
51289;BME280;37372;52.294;5.152;2023-05-08T11:53:31;102127.41;;;19.10;70.55
51289;BME280;37372;52.294;5.152;2023-05-08T11:55:58;102127.34;;;19.49;70.86
51289;BME280;37372;52.294;5.152;2023-05-08T11:58:36;102116.63;;;19.58;69.43
51289;BME280;37372;52.294;5.152;2023-05-08T12:01:02;102119.75;;;19.39;69.71
51289;BME280;37372;52.294;5.152;2023-05-08T12:03:28;102109.88;;;19.32;70.29
51289;BME280;37372;52.294;5.152;2023-05-08T12:06:03;102106.81;;;19.11;71.35
51289;BME280;37372;52.294;5.152;2023-05-08T12:08:29;102111.44;;;19.01;73.24
51289;BME280;37372;52.294;5.152;2023-05-08T12:10:56;102115.91;;;19.24;73.29
51289;BME280;37372;52.294;5.152;2023-05-08T12:13:27;102114.88;;;18.91;72.10
51289;BME280;37372;52.294;5.152;2023-05-08T12:15:59;102117.31;;;19.48;71.70
51289;BME280;37372;52.294;5.152;2023-05-08T12:18:31;102111.59;;;19.33;70.03
51289;BME280;37372;52.294;5.152;2023-05-08T12:21:02;102108.28;;;19.58;70.52
51289;BME280;37372;52.294;5.152;2023-05-08T12:23:28;102113.47;;;19.71;70.52
51289;BME280;37372;52.294;5.152;2023-05-08T12:25:57;102103.59;;;19.58;69.31
51289;BME280;37372;52.294;5.152;2023-05-08T12:28:22;102098.03;;;19.85;70.32
51289;BME280;37372;52.294;5.152;2023-05-08T12:31:08;102109.66;;;20.09;68.32
51289;BME280;37372;52.294;5.152;2023-05-08T12:33:37;102104.78;;;19.94;67.99
51289;BME280;37372;52.294;5.152;2023-05-08T12:36:03;102096.59;;;20.10;67.33
51289;BME280;37372;52.294;5.152;2023-05-08T12:38:33;102098.47;;;20.31;67.94
51289;BME280;37372;52.294;5.152;2023-05-08T12:41:01;102094.25;;;20.28;67.26
51289;BME280;37372;52.294;5.152;2023-05-08T12:43:35;102087.13;;;20.11;68.55
51289;BME280;37372;52.294;5.152;2023-05-08T12:46:02;102083.97;;;20.29;67.34
51289;BME280;37372;52.294;5.152;2023-05-08T12:48:29;102087.72;;;20.45;66.67
51289;BME280;37372;52.294;5.152;2023-05-08T12:51:04;102089.13;;;20.47;67.36
51289;BME280;37372;52.294;5.152;2023-05-08T12:53:32;102082.16;;;20.45;66.96
51289;BME280;37372;52.294;5.152;2023-05-08T12:56:01;102086.38;;;20.52;66.77
51289;BME280;37372;52.294;5.152;2023-05-08T12:58:32;102080.84;;;20.58;66.51
51289;BME280;37372;52.294;5.152;2023-05-08T13:01:09;102075.59;;;19.97;67.59
51289;BME280;37372;52.294;5.152;2023-05-08T13:03:39;102084.25;;;20.00;68.03
51289;BME280;37372;52.294;5.152;2023-05-08T13:06:05;102080.19;;;20.45;67.20
51289;BME280;37372;52.294;5.152;2023-05-08T13:08:37;102078.84;;;20.53;65.43
51289;BME280;37372;52.294;5.152;2023-05-08T13:11:05;102078.50;;;20.44;66.14
51289;BME280;37372;52.294;5.152;2023-05-08T13:13:35;102071.75;;;20.35;65.81
51289;BME280;37372;52.294;5.152;2023-05-08T13:16:05;102078.69;;;20.33;67.41
51289;BME280;37372;52.294;5.152;2023-05-08T13:18:35;102071.25;;;20.86;65.03
51289;BME280;37372;52.294;5.152;2023-05-08T13:21:06;102070.72;;;20.83;62.87
51289;BME280;37372;52.294;5.152;2023-05-08T13:23:32;102073.69;;;20.72;63.95
51289;BME280;37372;52.294;5.152;2023-05-08T13:25:57;102076.81;;;20.75;63.82
51289;BME280;37372;52.294;5.152;2023-05-08T13:28:23;102073.19;;;20.43;64.66
51289;BME280;37372;52.294;5.152;2023-05-08T13:30:48;102073.44;;;20.41;65.17
51289;BME280;37372;52.294;5.152;2023-05-08T13:33:14;102067.94;;;20.46;64.85
51289;BME280;37372;52.294;5.152;2023-05-08T13:35:39;102062.50;;;20.62;63.60
51289;BME280;37372;52.294;5.152;2023-05-08T13:38:05;102061.22;;;20.42;64.95
51289;BME280;37372;52.294;5.152;2023-05-08T13:40:34;102062.03;;;20.43;62.61
51289;BME280;37372;52.294;5.152;2023-05-08T13:42:59;102064.22;;;20.73;64.46
51289;BME280;37372;52.294;5.152;2023-05-08T13:45:24;102064.91;;;20.21;64.15
51289;BME280;37372;52.294;5.152;2023-05-08T13:48:04;102067.31;;;20.39;64.06
51289;BME280;37372;52.294;5.152;2023-05-08T13:50:33;102056.41;;;20.70;61.72
51289;BME280;37372;52.294;5.152;2023-05-08T13:53:02;102061.97;;;20.70;60.79